createdAt,value
2017-11-23T00:02:07.354Z,36.88
2017-11-23T00:04:34.786Z,35.53
2017-11-23T00:07:02.230Z,47.97
2017-11-23T00:09:29.653Z,40.22
2017-11-23T00:11:57.101Z,40.45
2017-11-23T00:14:24.534Z,47.17
2017-11-23T00:16:51.961Z,49.90
2017-11-23T00:19:19.401Z,67.78
2017-11-23T00:21:46.832Z,34.30
2017-11-23T00:24:14.274Z,47.78
2017-11-23T00:26:41.702Z,41.75
2017-11-23T00:29:09.134Z,47.55
2017-11-23T00:31:36.577Z,51.90
2017-11-23T00:34:04.001Z,46.58
2017-11-23T00:36:31.447Z,46.00
2017-11-23T00:38:58.869Z,41.90
2017-11-23T00:41:26.302Z,35.65
2017-11-23T00:43:53.749Z,48.17
2017-11-23T00:46:21.148Z,48.45
2017-11-23T00:48:48.625Z,39.42
2017-11-23T00:51:16.058Z,42.50
2017-11-23T00:53:43.481Z,46.08
2017-11-23T00:56:10.920Z,38.55
2017-11-23T00:58:38.350Z,44.55
2017-11-23T01:01:05.798Z,59.10
2017-11-23T01:03:33.221Z,57.08
2017-11-23T01:06:00.651Z,54.63
2017-11-23T01:08:28.085Z,48.42
2017-11-23T01:10:55.520Z,45.03
2017-11-23T01:13:22.958Z,51.78
2017-11-23T01:15:50.382Z,43.33
2017-11-23T01:18:17.810Z,49.10
2017-11-23T01:20:45.258Z,62.15
2017-11-23T01:23:12.681Z,47.38
2017-11-23T01:25:40.122Z,46.80
2017-11-23T01:28:07.565Z,61.67
2017-11-23T01:30:34.994Z,48.13
2017-11-23T01:33:02.437Z,57.90
2017-11-23T01:35:29.866Z,53.80
2017-11-23T01:37:57.306Z,46.05
2017-11-23T01:40:24.733Z,51.88
2017-11-23T01:42:52.170Z,52.33
2017-11-23T01:45:19.606Z,60.08
2017-11-23T01:47:47.038Z,60.78
2017-11-23T01:50:14.477Z,73.07
2017-11-23T01:52:41.902Z,51.00
2017-11-23T01:55:09.346Z,50.97
2017-11-23T01:57:36.775Z,42.42
2017-11-23T02:00:04.198Z,43.90
2017-11-23T02:02:31.637Z,45.28
2017-11-23T02:04:59.066Z,44.58
2017-11-23T02:07:26.514Z,48.40
2017-11-23T02:09:53.945Z,37.63
2017-11-23T02:12:21.365Z,43.38
2017-11-23T02:14:48.802Z,42.05
2017-11-23T02:17:16.225Z,53.17
2017-11-23T02:19:43.666Z,45.42
2017-11-23T02:22:11.089Z,39.95
2017-11-23T02:24:38.514Z,42.35
2017-11-23T02:27:05.953Z,46.17
2017-11-23T02:29:33.386Z,49.53
2017-11-23T02:32:00.833Z,43.55
2017-11-23T02:34:28.258Z,43.38
2017-11-23T02:36:55.690Z,40.83
2017-11-23T02:39:23.122Z,44.90
2017-11-23T02:41:50.550Z,42.58
2017-11-23T02:44:17.998Z,52.05
2017-11-23T02:46:45.425Z,54.55
2017-11-23T02:49:12.849Z,38.78
2017-11-23T02:51:40.291Z,39.53
2017-11-23T02:54:07.718Z,40.78
2017-11-23T02:56:35.157Z,38.00
2017-11-23T02:59:02.581Z,36.58
2017-11-23T03:01:30.014Z,36.03
2017-11-23T03:03:57.476Z,39.30
2017-11-23T03:06:24.875Z,39.95
2017-11-23T03:08:52.323Z,40.55
2017-11-23T03:11:19.753Z,38.22
2017-11-23T03:13:47.172Z,40.40
2017-11-23T03:16:14.609Z,31.15
2017-11-23T03:18:42.058Z,31.40
2017-11-23T03:21:09.464Z,37.33
2017-11-23T03:23:36.927Z,37.90
2017-11-23T03:26:04.353Z,33.63
2017-11-23T03:28:31.794Z,37.10
2017-11-23T03:30:59.227Z,34.13
2017-11-23T03:33:26.677Z,33.65
2017-11-23T03:35:54.092Z,44.17
2017-11-23T03:38:21.526Z,34.97
2017-11-23T03:40:48.965Z,32.90
2017-11-23T03:43:16.389Z,30.60
2017-11-23T03:45:43.841Z,38.25
2017-11-23T03:48:11.266Z,36.25
2017-11-23T03:50:38.691Z,26.33
2017-11-23T03:53:06.126Z,52.03
2017-11-23T03:55:33.554Z,28.40
2017-11-23T03:58:00.999Z,49.47
2017-11-23T04:00:28.418Z,43.28
2017-11-23T04:02:55.846Z,38.97
2017-11-23T04:05:23.284Z,46.83
2017-11-23T04:07:50.714Z,47.05
2017-11-23T04:10:18.185Z,42.05
2017-11-23T04:12:45.634Z,40.70
2017-11-23T04:15:13.064Z,44.22
2017-11-23T04:17:40.498Z,37.28
2017-11-23T04:20:07.924Z,36.83
2017-11-23T04:22:35.440Z,36.25
2017-11-23T04:25:02.871Z,46.92
2017-11-23T04:27:30.293Z,37.65
2017-11-23T04:29:57.730Z,37.28
2017-11-23T04:32:25.157Z,41.30
2017-11-23T04:34:52.609Z,39.95
2017-11-23T04:37:20.034Z,48.13
2017-11-23T04:39:47.466Z,42.92
2017-11-23T04:42:14.905Z,48.87
2017-11-23T04:44:42.333Z,43.13
2017-11-23T04:47:09.777Z,46.78
2017-11-23T04:49:37.205Z,38.00
2017-11-23T04:52:04.654Z,47.17
2017-11-23T04:54:32.094Z,47.62
2017-11-23T04:56:59.537Z,50.60
2017-11-23T04:59:26.982Z,40.50
2017-11-23T05:01:54.421Z,35.35
2017-11-23T05:04:22.809Z,38.00
2017-11-23T05:06:50.246Z,38.33
2017-11-23T05:09:17.676Z,38.28
2017-11-23T05:11:45.115Z,40.00
2017-11-23T05:14:12.537Z,49.85
2017-11-23T05:16:39.978Z,35.13
2017-11-23T05:19:07.402Z,39.92
2017-11-23T05:21:34.836Z,38.72
2017-11-23T05:24:02.274Z,39.95
2017-11-23T05:26:29.706Z,35.30
2017-11-23T05:28:57.145Z,41.20
2017-11-23T05:31:24.586Z,37.08
2017-11-23T05:33:52.013Z,40.75
2017-11-23T05:36:19.486Z,47.17
2017-11-23T05:38:46.942Z,41.47
2017-11-23T05:41:14.390Z,44.45
2017-11-23T05:43:41.830Z,43.83
2017-11-23T05:46:09.302Z,53.13
2017-11-23T05:48:36.745Z,38.55
2017-11-23T05:51:04.229Z,42.03
2017-11-23T05:53:31.665Z,42.80
2017-11-23T05:55:59.094Z,62.17
2017-11-23T05:58:27.447Z,31.23
2017-11-23T06:00:54.885Z,26.77
2017-11-23T06:03:22.316Z,33.45
2017-11-23T06:05:49.762Z,33.25
2017-11-23T06:08:17.190Z,40.03
2017-11-23T06:10:44.618Z,31.98
2017-11-23T06:13:12.071Z,29.10
2017-11-23T06:15:39.561Z,25.33
2017-11-23T06:18:06.998Z,33.15
2017-11-23T06:20:34.429Z,35.83
2017-11-23T06:23:01.864Z,36.90
2017-11-23T06:25:29.301Z,26.65
2017-11-23T06:27:56.726Z,32.80
2017-11-23T06:30:24.178Z,29.55
2017-11-23T06:32:51.606Z,30.05
2017-11-23T06:35:19.037Z,20.40
2017-11-23T06:37:46.477Z,26.15
2017-11-23T06:40:13.910Z,28.87
2017-11-23T06:42:41.362Z,29.12
2017-11-23T06:45:08.789Z,33.88
2017-11-23T06:47:36.218Z,40.88
2017-11-23T06:50:03.663Z,28.70
2017-11-23T06:52:31.090Z,45.00
2017-11-23T06:54:58.528Z,38.50
2017-11-23T06:57:25.955Z,41.42
2017-11-23T06:59:53.381Z,37.17
2017-11-23T07:02:20.823Z,36.53
2017-11-23T07:04:48.250Z,42.95
2017-11-23T07:07:15.690Z,37.72
2017-11-23T07:09:43.122Z,44.72
2017-11-23T07:12:10.558Z,32.65
2017-11-23T07:14:37.994Z,37.33
2017-11-23T07:17:05.434Z,42.33
2017-11-23T07:19:32.888Z,38.53
2017-11-23T07:22:00.321Z,40.30
2017-11-23T07:24:27.754Z,36.85
2017-11-23T07:26:55.202Z,54.05
2017-11-23T07:29:22.630Z,40.95
2017-11-23T07:31:50.084Z,33.65
2017-11-23T07:34:18.146Z,31.95
2017-11-23T07:36:45.584Z,38.08
2017-11-23T07:39:13.029Z,36.85
2017-11-23T07:41:40.458Z,36.58
2017-11-23T07:44:07.902Z,51.35
2017-11-23T07:46:35.333Z,22.10
2017-11-23T07:49:02.767Z,26.65
2017-11-23T07:51:30.221Z,39.28
2017-11-23T07:53:57.667Z,52.05
2017-11-23T07:56:25.122Z,31.37
2017-11-23T07:58:52.537Z,33.75
2017-11-23T08:01:19.969Z,42.08
2017-11-23T08:03:47.418Z,32.42
2017-11-23T08:06:14.854Z,43.58
2017-11-23T08:08:42.307Z,33.58
2017-11-23T08:11:09.728Z,22.08
2017-11-23T08:13:37.161Z,42.30
2017-11-23T08:16:04.597Z,42.45
2017-11-23T08:18:32.032Z,23.00
2017-11-23T08:20:59.478Z,33.88
2017-11-23T08:23:26.911Z,35.43
2017-11-23T08:25:54.342Z,32.75
2017-11-23T08:28:21.779Z,36.07
2017-11-23T08:30:49.217Z,35.15
2017-11-23T08:33:16.670Z,38.78
2017-11-23T08:35:44.135Z,39.10
2017-11-23T08:38:11.567Z,24.70
2017-11-23T08:40:38.997Z,33.57
2017-11-23T08:43:06.426Z,28.53
2017-11-23T08:45:33.862Z,28.37
2017-11-23T08:48:01.286Z,45.57
2017-11-23T08:50:28.712Z,31.10
2017-11-23T08:52:57.946Z,26.40
2017-11-23T08:55:27.322Z,30.67
2017-11-23T08:57:54.770Z,26.80
2017-11-23T09:00:22.194Z,23.17
2017-11-23T09:02:51.426Z,29.37
2017-11-23T09:05:19.582Z,30.27
2017-11-23T09:07:47.002Z,25.43
2017-11-23T09:10:14.436Z,21.07
2017-11-23T09:12:43.762Z,27.60
2017-11-23T09:15:11.185Z,32.30
2017-11-23T09:17:38.629Z,24.70
2017-11-23T09:20:06.049Z,21.63
2017-11-23T09:22:33.499Z,23.30
2017-11-23T09:25:00.924Z,23.13
2017-11-23T09:27:28.358Z,18.30
2017-11-23T09:29:55.789Z,18.40
2017-11-23T09:32:23.176Z,18.43
2017-11-23T09:34:50.650Z,12.87
2017-11-23T09:37:18.074Z,17.43
2017-11-23T09:39:45.498Z,16.50
2017-11-23T09:42:12.940Z,25.83
2017-11-23T09:44:40.364Z,11.50
2017-11-23T09:47:07.806Z,29.73
2017-11-23T09:49:35.225Z,19.80
2017-11-23T09:52:02.649Z,20.57
2017-11-23T09:54:30.082Z,14.73
2017-11-23T09:56:57.505Z,13.50
2017-11-23T09:59:24.944Z,11.07
2017-11-23T10:01:52.366Z,12.10
2017-11-23T10:04:19.789Z,15.83
2017-11-23T10:06:47.222Z,11.80
2017-11-23T10:09:14.651Z,17.07
2017-11-23T10:11:42.090Z,13.10
2017-11-23T10:14:15.081Z,24.33
2017-11-23T10:16:42.528Z,17.00
2017-11-23T10:19:09.944Z,17.40
2017-11-23T10:21:37.374Z,11.30
2017-11-23T10:24:04.806Z,18.77
2017-11-23T10:26:32.224Z,13.20
2017-11-23T10:28:59.666Z,20.07
2017-11-23T10:31:27.086Z,16.20
2017-11-23T10:33:54.506Z,10.23
2017-11-23T10:36:21.942Z,12.20
2017-11-23T10:38:49.356Z,9.47
2017-11-23T10:41:17.613Z,12.90
2017-11-23T10:43:45.038Z,12.13
2017-11-23T10:46:12.462Z,8.97
2017-11-23T10:48:40.714Z,10.77
2017-11-23T10:51:08.169Z,11.73
2017-11-23T10:53:35.601Z,9.27
2017-11-23T10:56:03.021Z,10.60
2017-11-23T10:58:30.451Z,17.70
2017-11-23T11:00:57.902Z,13.70
2017-11-23T11:03:25.336Z,13.90
2017-11-23T11:05:52.786Z,14.27
2017-11-23T11:08:20.218Z,12.03
2017-11-23T11:10:47.646Z,15.60
2017-11-23T11:13:15.092Z,13.57
2017-11-23T11:15:42.527Z,14.83
2017-11-23T11:18:09.984Z,22.83
2017-11-23T11:20:37.886Z,8.90
2017-11-23T11:23:05.310Z,11.20
2017-11-23T11:25:32.749Z,13.03
2017-11-23T11:28:00.185Z,20.43
2017-11-23T11:30:27.665Z,17.77
2017-11-23T11:32:55.101Z,11.97
2017-11-23T11:35:22.531Z,14.73
2017-11-23T11:37:49.959Z,12.23
2017-11-23T11:40:17.387Z,10.60
2017-11-23T11:42:44.822Z,13.03
2017-11-23T11:45:12.243Z,9.00
2017-11-23T11:47:39.663Z,13.47
2017-11-23T11:50:07.097Z,10.73
2017-11-23T11:52:34.527Z,11.20
2017-11-23T11:55:01.964Z,17.70
2017-11-23T11:57:29.394Z,14.20
2017-11-23T11:59:56.817Z,12.23
2017-11-23T12:02:24.246Z,9.13
2017-11-23T12:04:51.675Z,12.03
2017-11-23T12:07:19.114Z,14.67
2017-11-23T12:09:46.535Z,10.43
2017-11-23T12:12:13.961Z,16.03
2017-11-23T12:14:41.398Z,22.07
2017-11-23T12:30:45.602Z,26.37
2017-11-23T12:33:13.014Z,13.00
2017-11-23T12:35:40.445Z,14.03
2017-11-23T12:38:07.865Z,12.80
2017-11-23T12:40:35.289Z,40.00
2017-11-23T12:43:02.729Z,30.93
2017-11-23T12:45:30.145Z,7.27
2017-11-23T12:47:57.586Z,21.77
2017-11-23T12:50:25.001Z,26.93
2017-11-23T12:52:52.427Z,12.43
2017-11-23T12:55:19.861Z,16.43
2017-11-23T12:57:47.273Z,8.93
2017-11-23T13:00:14.716Z,15.57
2017-11-23T13:02:42.139Z,10.13
2017-11-23T13:05:09.549Z,8.83
2017-11-23T13:07:36.988Z,12.00
2017-11-23T13:10:04.401Z,11.60
2017-11-23T13:12:31.841Z,14.70
2017-11-23T13:14:59.263Z,12.60
2017-11-23T13:17:26.681Z,32.33
2017-11-23T13:19:54.114Z,10.00
2017-11-23T13:22:21.537Z,17.20
2017-11-23T13:24:48.973Z,12.90
2017-11-23T13:27:16.396Z,26.60
2017-11-23T13:29:43.810Z,21.23
2017-11-23T13:32:11.245Z,16.57
2017-11-23T13:34:38.662Z,15.70
2017-11-23T13:37:06.103Z,34.67
2017-11-23T13:39:33.529Z,29.37
2017-11-23T13:42:00.951Z,24.63
2017-11-23T13:44:28.377Z,20.50
2017-11-23T13:46:55.802Z,23.27
2017-11-23T13:49:23.245Z,37.63
2017-11-23T13:51:50.668Z,28.53
2017-11-23T13:54:18.119Z,28.63
2017-11-23T13:56:45.546Z,32.13
2017-11-23T13:59:12.966Z,22.77
2017-11-23T14:01:40.398Z,25.10
2017-11-23T14:04:07.841Z,20.03
2017-11-23T14:06:35.309Z,18.63
2017-11-23T14:09:02.753Z,16.57
2017-11-23T14:11:30.181Z,21.43
2017-11-23T14:13:57.609Z,24.37
2017-11-23T14:16:25.038Z,25.07
2017-11-23T14:18:52.475Z,18.87
2017-11-23T14:21:19.905Z,21.93
2017-11-23T14:23:47.325Z,15.63
2017-11-23T14:26:14.761Z,10.80
2017-11-23T14:28:42.185Z,34.03
2017-11-23T14:31:09.634Z,19.50
2017-11-23T14:33:37.058Z,15.23
2017-11-23T14:36:04.496Z,12.83
2017-11-23T14:38:31.976Z,20.83
2017-11-23T14:40:59.445Z,23.03
2017-11-23T14:43:26.923Z,30.07
2017-11-23T14:45:54.397Z,50.13
2017-11-23T14:48:21.834Z,25.23
2017-11-23T14:50:49.258Z,38.60
2017-11-23T14:53:16.682Z,25.37
2017-11-23T14:55:44.125Z,34.37
2017-11-23T14:58:11.545Z,35.97
2017-11-23T15:00:38.985Z,24.33
2017-11-23T15:03:06.400Z,71.37
2017-11-23T15:05:33.835Z,82.13
2017-11-23T15:08:01.266Z,45.70
2017-11-23T15:10:28.688Z,22.27
2017-11-23T15:12:56.129Z,22.00
2017-11-23T15:15:23.550Z,33.33
2017-11-23T15:17:50.970Z,34.20
2017-11-23T15:20:18.410Z,63.17
2017-11-23T15:22:45.839Z,18.77
2017-11-23T15:25:13.281Z,40.63
2017-11-23T15:27:40.704Z,43.73
2017-11-23T15:30:08.125Z,38.33
2017-11-23T15:32:35.566Z,47.27
2017-11-23T15:35:02.992Z,38.07
2017-11-23T15:37:30.438Z,28.43
2017-11-23T15:39:57.885Z,76.37
2017-11-23T15:42:25.325Z,29.00
2017-11-23T15:44:52.827Z,39.20
2017-11-23T15:47:20.270Z,56.37
2017-11-23T15:49:47.727Z,36.13
2017-11-23T15:52:15.169Z,46.30
2017-11-23T15:54:43.998Z,30.80
2017-11-23T15:57:11.449Z,24.73
2017-11-23T15:59:38.884Z,40.17
2017-11-23T16:02:06.325Z,41.20
2017-11-23T16:04:33.760Z,47.47
2017-11-23T16:07:01.193Z,15.30
2017-11-23T16:09:28.637Z,16.03
2017-11-23T16:11:56.075Z,34.73
2017-11-23T16:14:23.542Z,41.43
2017-11-23T16:16:50.974Z,17.17
2017-11-23T16:19:18.406Z,18.10
2017-11-23T16:21:45.846Z,16.97
2017-11-23T16:24:13.269Z,19.53
2017-11-23T16:26:40.705Z,21.20
2017-11-23T16:29:08.128Z,28.97
2017-11-23T16:31:35.560Z,19.27
2017-11-23T16:34:02.991Z,20.43
2017-11-23T16:36:30.918Z,27.17
2017-11-23T16:39:04.193Z,40.30
2017-11-23T16:41:33.065Z,32.80
2017-11-23T16:57:51.354Z,32.50
2017-11-23T17:00:30.659Z,36.33
2017-11-23T17:02:58.441Z,21.17
2017-11-23T17:05:31.449Z,34.50
2017-11-23T17:21:33.685Z,49.07
2017-11-23T17:24:01.125Z,41.33
2017-11-23T17:26:28.553Z,49.13
2017-11-23T17:28:55.989Z,42.40
2017-11-23T17:31:23.414Z,47.00
2017-11-23T17:33:50.857Z,35.17
2017-11-23T17:36:18.300Z,17.80
2017-11-23T17:38:45.729Z,33.73
2017-11-23T17:41:13.166Z,27.83
2017-11-23T17:43:40.601Z,37.23
2017-11-23T17:46:08.047Z,43.93
2017-11-23T17:48:35.485Z,36.30
2017-11-23T17:51:02.912Z,30.60
2017-11-23T17:53:30.359Z,25.13
2017-11-23T17:55:57.778Z,26.77
2017-11-23T17:58:25.231Z,38.83
2017-11-23T18:00:52.649Z,18.77
2017-11-23T18:03:20.084Z,37.73
2017-11-23T18:05:47.525Z,50.43
2017-11-23T18:08:14.977Z,28.63
2017-11-23T18:10:42.427Z,48.63
2017-11-23T18:13:09.866Z,31.77
2017-11-23T18:15:37.317Z,54.07
2017-11-23T18:18:04.746Z,21.80
2017-11-23T18:20:32.173Z,32.00
2017-11-23T18:22:59.626Z,21.73
2017-11-23T18:25:27.063Z,22.67
2017-11-23T18:27:54.507Z,20.67
2017-11-23T18:30:21.934Z,38.00
2017-11-23T18:32:49.366Z,13.60
2017-11-23T18:35:16.806Z,22.97
2017-11-23T18:37:44.246Z,14.47
2017-11-23T18:40:11.685Z,28.63
2017-11-23T18:42:39.127Z,16.17
2017-11-23T18:45:06.563Z,22.60
2017-11-23T18:47:33.998Z,18.43
2017-11-23T18:50:01.426Z,17.60
2017-11-23T18:52:28.868Z,23.07
2017-11-23T18:54:56.289Z,22.80
2017-11-23T18:57:23.730Z,22.13
2017-11-23T18:59:51.154Z,17.50
2017-11-23T19:02:18.590Z,12.40
2017-11-23T19:04:46.014Z,22.90
2017-11-23T19:07:13.458Z,22.40
2017-11-23T19:09:40.881Z,12.80
2017-11-23T19:12:08.312Z,17.40
2017-11-23T19:14:35.749Z,21.53
2017-11-23T19:17:03.170Z,18.33
2017-11-23T19:19:30.607Z,14.83
2017-11-23T19:21:58.032Z,23.90
2017-11-23T19:24:25.462Z,16.73
2017-11-23T19:26:53.892Z,15.87
2017-11-23T19:29:21.317Z,22.57
2017-11-23T19:31:48.759Z,16.60
2017-11-23T19:34:16.191Z,19.80
2017-11-23T19:36:43.614Z,19.73
2017-11-23T19:39:11.054Z,16.93
2017-11-23T19:41:38.594Z,18.57
2017-11-23T19:44:06.044Z,13.93
2017-11-23T19:46:33.473Z,22.13
2017-11-23T19:49:00.905Z,17.93
2017-11-23T19:51:28.346Z,16.93
2017-11-23T19:53:55.767Z,16.03
2017-11-23T19:56:23.247Z,18.20
2017-11-23T19:58:50.696Z,18.00
2017-11-23T20:01:18.148Z,13.03
2017-11-23T20:03:45.597Z,13.23
2017-11-23T20:06:13.076Z,18.83
2017-11-23T20:08:40.518Z,16.30
2017-11-23T20:11:07.955Z,23.80
2017-11-23T20:13:35.418Z,34.27
2017-11-23T20:16:02.842Z,23.70
2017-11-23T20:18:30.271Z,18.60
2017-11-23T20:20:57.725Z,28.63
2017-11-23T20:23:25.151Z,23.83
2017-11-23T20:25:52.594Z,18.40
2017-11-23T20:28:20.014Z,19.73
2017-11-23T20:30:47.460Z,16.97
2017-11-23T20:33:14.924Z,28.83
2017-11-23T20:35:42.383Z,19.87
2017-11-23T20:38:09.826Z,26.83
2017-11-23T20:40:37.254Z,26.73
2017-11-23T20:43:04.694Z,19.63
2017-11-23T20:45:32.139Z,29.00
2017-11-23T20:47:59.568Z,31.13
2017-11-23T20:50:27.010Z,26.73
2017-11-23T20:52:54.445Z,33.80
2017-11-23T20:55:21.895Z,23.00
2017-11-23T20:57:49.320Z,19.43
2017-11-23T21:00:16.749Z,35.37
2017-11-23T21:02:44.190Z,17.10
2017-11-23T21:05:12.239Z,21.50
2017-11-23T21:07:39.678Z,21.00
2017-11-23T21:10:07.135Z,17.00
2017-11-23T21:12:34.584Z,20.87
2017-11-23T21:15:02.027Z,17.30
2017-11-23T21:17:29.469Z,19.50
2017-11-23T21:20:00.656Z,16.80
2017-11-23T21:22:28.097Z,20.30
2017-11-23T21:24:55.539Z,28.40
2017-11-23T21:27:22.982Z,36.13
2017-11-23T21:29:50.423Z,40.63
2017-11-23T21:32:17.872Z,36.57
2017-11-23T21:34:45.297Z,43.27
2017-11-23T21:37:12.738Z,39.70
2017-11-23T21:39:40.178Z,35.90
2017-11-23T21:42:08.622Z,37.27
2017-11-23T21:44:36.049Z,29.60
2017-11-23T21:47:09.603Z,47.93
2017-11-23T21:49:37.066Z,24.60
2017-11-23T21:52:04.498Z,23.13
2017-11-23T21:57:05.614Z,13.20
2017-11-23T21:59:33.090Z,18.50
2017-11-23T22:02:00.498Z,17.57
2017-11-23T22:04:27.922Z,16.33
2017-11-23T22:06:56.261Z,22.67
2017-11-23T22:09:23.680Z,39.97
2017-11-23T22:11:51.130Z,27.00
2017-11-23T22:14:18.553Z,16.90
2017-11-23T22:16:45.979Z,20.80
2017-11-23T22:19:13.418Z,16.97
2017-11-23T22:21:40.846Z,25.73
2017-11-23T22:24:08.286Z,23.30
2017-11-23T22:26:35.721Z,23.37
2017-11-23T22:29:06.130Z,15.60
2017-11-23T22:31:33.569Z,24.43
2017-11-23T22:34:01.006Z,13.87
2017-11-23T22:36:28.447Z,34.67
2017-11-23T22:38:55.874Z,22.93
2017-11-23T22:41:23.326Z,45.07
2017-11-23T22:43:50.751Z,21.10
2017-11-23T22:46:18.182Z,16.57
2017-11-23T22:48:45.630Z,14.70
2017-11-23T22:51:13.066Z,23.63
2017-11-23T22:53:40.509Z,15.37
2017-11-23T22:56:07.935Z,16.53
2017-11-23T22:58:35.366Z,22.43
2017-11-23T23:01:04.675Z,19.40
2017-11-23T23:03:34.572Z,27.53
2017-11-23T23:06:19.096Z,20.40
2017-11-23T23:08:46.529Z,29.97
2017-11-23T23:11:13.986Z,26.93
2017-11-23T23:13:46.332Z,10.73
2017-11-23T23:16:13.786Z,14.43
2017-11-23T23:18:41.234Z,14.40
2017-11-23T23:21:08.679Z,15.53
2017-11-23T23:23:36.126Z,18.43
2017-11-23T23:26:03.563Z,11.83
2017-11-23T23:28:30.988Z,19.87
2017-11-23T23:30:58.431Z,8.93
2017-11-23T23:33:25.967Z,14.37
2017-11-23T23:35:53.445Z,18.40
2017-11-23T23:38:20.869Z,15.20
2017-11-23T23:40:51.117Z,14.90
2017-11-23T23:43:18.562Z,13.83
2017-11-23T23:45:48.611Z,19.43
2017-11-23T23:50:59.325Z,13.80
2017-11-23T23:53:26.770Z,20.63
2017-11-23T23:55:54.241Z,29.03
2017-11-23T23:58:21.688Z,19.40
